createdAt,value
2022-12-06T00:01:29.329Z,12.05
2022-12-06T00:03:57.748Z,12.38
2022-12-06T00:06:25.659Z,12.27
2022-12-06T00:08:52.507Z,12.45
2022-12-06T00:11:20.170Z,12.85
2022-12-06T00:13:46.844Z,12.40
2022-12-06T00:16:14.471Z,12.73
2022-12-06T00:18:41.561Z,12.50
2022-12-06T00:21:09.619Z,12.43
2022-12-06T00:23:40.010Z,12.38
2022-12-06T00:26:06.697Z,9.55
2022-12-06T00:28:33.175Z,12.38
2022-12-06T00:30:59.841Z,11.63
2022-12-06T00:33:26.679Z,11.90
2022-12-06T00:35:59.893Z,12.30
2022-12-06T00:38:27.696Z,12.48
2022-12-06T00:41:00.940Z,11.95
2022-12-06T00:43:27.804Z,12.18
2022-12-06T00:45:54.110Z,12.02
2022-12-06T00:48:20.492Z,11.50
2022-12-06T00:50:46.807Z,11.43
2022-12-06T00:53:13.309Z,10.23
2022-12-06T00:55:39.688Z,11.52
2022-12-06T00:58:05.894Z,12.40
2022-12-06T01:00:32.162Z,12.18
2022-12-06T01:02:58.598Z,12.10
2022-12-06T01:05:24.932Z,12.07
2022-12-06T01:07:51.195Z,13.15
2022-12-06T01:10:17.688Z,11.88
2022-12-06T01:12:43.919Z,12.40
2022-12-06T01:15:10.395Z,13.10
2022-12-06T01:17:36.664Z,13.48
2022-12-06T01:20:04.066Z,13.25
2022-12-06T01:22:30.416Z,13.75
2022-12-06T01:24:56.659Z,14.00
2022-12-06T01:27:22.869Z,14.73
2022-12-06T01:29:49.385Z,14.50
2022-12-06T01:32:15.604Z,14.10
2022-12-06T01:34:41.879Z,14.75
2022-12-06T01:37:08.136Z,14.85
2022-12-06T01:39:34.337Z,14.77
2022-12-06T01:42:00.666Z,15.52
2022-12-06T01:44:45.945Z,16.02
2022-12-06T01:47:20.508Z,14.10
2022-12-06T01:49:49.255Z,15.05
2022-12-06T01:52:16.275Z,14.25
2022-12-06T01:54:42.670Z,15.85
2022-12-06T01:57:10.955Z,14.18
2022-12-06T01:59:37.327Z,15.00
2022-12-06T02:02:03.573Z,14.52
2022-12-06T02:04:30.454Z,14.80
2022-12-06T02:06:57.426Z,15.00
2022-12-06T02:09:24.298Z,15.80
2022-12-06T02:11:50.581Z,15.73
2022-12-06T02:14:18.417Z,15.07
2022-12-06T02:16:54.716Z,16.08
2022-12-06T02:19:23.946Z,16.67
2022-12-06T02:22:02.371Z,15.63
2022-12-06T02:24:47.230Z,15.40
2022-12-06T02:27:31.765Z,15.63
2022-12-06T02:30:08.860Z,15.07
2022-12-06T02:32:43.968Z,15.63
2022-12-06T02:35:22.067Z,14.05
2022-12-06T02:37:53.290Z,15.68
2022-12-06T02:40:22.247Z,14.77
2022-12-06T02:42:56.564Z,14.68
2022-12-06T02:45:25.556Z,14.65
2022-12-06T02:47:52.363Z,15.48
2022-12-06T02:50:21.403Z,15.50
2022-12-06T02:52:49.522Z,13.25
2022-12-06T02:55:16.573Z,15.60
2022-12-06T02:57:45.163Z,15.07
2022-12-06T03:00:29.964Z,14.57
2022-12-06T03:03:16.749Z,14.55
2022-12-06T03:05:51.889Z,13.93
2022-12-06T03:08:30.501Z,14.73
2022-12-06T03:11:00.349Z,15.65
2022-12-06T03:13:26.509Z,16.13
2022-12-06T03:15:52.749Z,15.23
2022-12-06T03:18:21.799Z,15.10
2022-12-06T03:21:08.254Z,15.43
2022-12-06T03:23:37.112Z,14.73
2022-12-06T03:26:05.254Z,14.73
2022-12-06T03:28:31.863Z,14.70
2022-12-06T03:30:59.714Z,15.00
2022-12-06T03:33:27.241Z,15.30
2022-12-06T03:35:54.155Z,16.35
2022-12-06T03:38:26.612Z,14.65
2022-12-06T03:40:53.982Z,15.75
2022-12-06T03:43:20.204Z,16.23
2022-12-06T03:45:49.709Z,15.70
2022-12-06T03:48:21.522Z,16.85
2022-12-06T03:50:55.416Z,15.52
2022-12-06T03:53:24.673Z,15.93
2022-12-06T03:55:50.913Z,16.95
2022-12-06T03:58:17.276Z,17.23
2022-12-06T04:00:44.479Z,17.67
2022-12-06T04:03:10.658Z,17.30
2022-12-06T04:05:36.863Z,17.45
2022-12-06T04:08:03.389Z,17.10
2022-12-06T04:10:29.678Z,16.95
2022-12-06T04:13:01.974Z,18.25
2022-12-06T04:15:33.054Z,18.60
2022-12-06T04:18:13.206Z,17.05
2022-12-06T04:21:05.331Z,18.00
2022-12-06T04:23:33.391Z,18.42
2022-12-06T04:25:59.647Z,17.88
2022-12-06T04:28:44.559Z,17.85
2022-12-06T04:31:29.663Z,18.95
2022-12-06T04:34:14.418Z,18.08
2022-12-06T04:36:59.524Z,19.42
2022-12-06T04:39:26.246Z,18.95
2022-12-06T04:42:11.358Z,19.30
2022-12-06T04:44:37.620Z,18.30
2022-12-06T04:47:04.041Z,18.52
2022-12-06T04:49:30.350Z,17.33
2022-12-06T04:51:56.633Z,18.98
2022-12-06T04:54:23.366Z,17.33
2022-12-06T04:56:49.625Z,19.30
2022-12-06T04:59:15.919Z,18.30
2022-12-06T05:01:42.111Z,18.60
2022-12-06T05:04:08.387Z,17.83
2022-12-06T05:06:34.755Z,18.90
2022-12-06T05:09:00.989Z,18.23
2022-12-06T05:11:27.374Z,19.15
2022-12-06T05:13:53.574Z,17.60
2022-12-06T05:16:19.827Z,18.13
2022-12-06T05:18:46.071Z,18.05
2022-12-06T05:21:16.817Z,18.38
2022-12-06T05:23:43.361Z,17.13
2022-12-06T05:26:14.182Z,17.55
2022-12-06T05:28:40.493Z,16.67
2022-12-06T05:31:06.797Z,16.75
2022-12-06T05:33:33.016Z,17.15
2022-12-06T05:35:59.309Z,16.08
2022-12-06T05:38:25.547Z,14.85
2022-12-06T05:40:51.753Z,16.55
2022-12-06T05:43:17.965Z,16.50
2022-12-06T05:45:44.328Z,16.02
2022-12-06T05:48:10.571Z,17.27
2022-12-06T05:50:36.808Z,16.67
2022-12-06T05:53:03.173Z,16.25
2022-12-06T05:55:29.433Z,17.08
2022-12-06T05:57:55.657Z,16.85
2022-12-06T06:00:22.036Z,17.08
2022-12-06T06:02:48.424Z,16.63
2022-12-06T06:05:14.776Z,17.23
2022-12-06T06:07:41.044Z,16.85
2022-12-06T06:10:07.510Z,17.08
2022-12-06T06:12:33.745Z,16.42
2022-12-06T06:15:00.026Z,15.88
2022-12-06T06:17:26.246Z,16.95
2022-12-06T06:19:52.729Z,17.15
2022-12-06T06:22:19.885Z,18.05
2022-12-06T06:24:46.096Z,18.10
2022-12-06T06:27:12.367Z,17.05
2022-12-06T06:29:44.939Z,16.50
2022-12-06T06:32:12.608Z,17.02
2022-12-06T06:34:38.937Z,17.08
2022-12-06T06:37:05.238Z,18.80
2022-12-06T06:39:31.434Z,17.40
2022-12-06T06:41:57.665Z,18.05
2022-12-06T06:44:23.906Z,17.42
2022-12-06T06:46:50.120Z,18.42
2022-12-06T06:49:17.543Z,17.60
2022-12-06T06:51:43.728Z,17.27
2022-12-06T06:54:10.163Z,18.70
2022-12-06T06:56:36.558Z,18.48
2022-12-06T06:59:02.911Z,17.90
2022-12-06T07:01:29.468Z,18.17
2022-12-06T07:03:56.109Z,17.77
2022-12-06T07:06:22.362Z,18.00
2022-12-06T07:08:48.650Z,20.50
2022-12-06T07:11:15.497Z,18.30
2022-12-06T07:13:43.857Z,19.90
2022-12-06T07:16:13.638Z,19.27
2022-12-06T07:18:40.139Z,19.33
2022-12-06T07:21:07.461Z,19.52
2022-12-06T07:23:34.630Z,18.77
2022-12-06T07:26:01.834Z,19.02
2022-12-06T07:28:28.074Z,19.75
2022-12-06T07:30:54.322Z,20.17
2022-12-06T07:33:20.586Z,19.45
2022-12-06T07:38:39.944Z,20.42
2022-12-06T07:41:26.393Z,19.35
2022-12-06T07:44:12.721Z,18.90
2022-12-06T07:46:39.084Z,18.88
2022-12-06T07:49:05.652Z,18.08
2022-12-06T07:51:32.249Z,19.83
2022-12-06T07:53:58.525Z,22.98
2022-12-06T07:56:24.803Z,22.15
2022-12-06T07:58:51.159Z,26.70
2022-12-06T08:01:17.450Z,21.75
2022-12-06T08:03:43.709Z,20.77
2022-12-06T08:06:09.943Z,22.08
2022-12-06T08:08:36.334Z,20.95
2022-12-06T08:11:04.355Z,20.67
2022-12-06T08:13:30.553Z,21.40
2022-12-06T08:15:56.795Z,20.95
2022-12-06T08:18:23.238Z,21.27
2022-12-06T08:20:50.307Z,22.00
2022-12-06T08:23:16.491Z,19.73
2022-12-06T08:25:42.672Z,19.55
2022-12-06T08:28:08.924Z,20.17
2022-12-06T08:30:35.288Z,20.92
2022-12-06T08:33:01.559Z,19.88
2022-12-06T08:35:27.763Z,19.40
2022-12-06T08:37:53.966Z,19.98
2022-12-06T08:40:20.187Z,19.25
2022-12-06T08:42:46.812Z,16.55
2022-12-06T08:45:13.013Z,19.13
2022-12-06T08:47:39.233Z,18.80
2022-12-06T08:50:05.850Z,17.42
2022-12-06T08:52:32.046Z,16.98
2022-12-06T08:54:58.282Z,16.70
2022-12-06T08:57:24.514Z,16.63
2022-12-06T08:59:50.799Z,17.08
2022-12-06T09:02:17.265Z,16.55
2022-12-06T09:04:43.588Z,16.40
2022-12-06T09:07:11.892Z,15.93
2022-12-06T09:09:38.394Z,15.93
2022-12-06T09:12:04.653Z,14.43
2022-12-06T09:14:30.912Z,14.93
2022-12-06T09:16:57.256Z,16.40
2022-12-06T09:19:23.533Z,15.93
2022-12-06T09:21:49.788Z,16.08
2022-12-06T09:24:17.388Z,17.45
2022-12-06T09:26:43.678Z,16.58
2022-12-06T09:29:10.402Z,16.73
2022-12-06T09:31:40.270Z,16.05
2022-12-06T09:34:10.569Z,17.30
2022-12-06T09:36:40.094Z,17.35
2022-12-06T09:39:11.024Z,15.50
2022-12-06T09:41:48.567Z,16.73
2022-12-06T09:44:17.937Z,15.88
2022-12-06T09:46:53.167Z,17.45
2022-12-06T09:49:30.377Z,16.58
2022-12-06T09:52:08.895Z,17.02
2022-12-06T09:54:35.137Z,18.77
2022-12-06T09:57:12.574Z,18.10
2022-12-06T09:59:53.826Z,16.10
2022-12-06T10:02:24.792Z,17.95
2022-12-06T10:05:14.873Z,16.63
2022-12-06T10:07:47.820Z,15.50
2022-12-06T10:10:31.874Z,16.02
2022-12-06T10:13:18.663Z,15.52
2022-12-06T10:16:11.167Z,15.43
2022-12-06T10:18:43.484Z,15.35
2022-12-06T10:21:19.985Z,15.02
2022-12-06T10:24:06.896Z,15.02
2022-12-06T10:26:35.827Z,14.35
2022-12-06T10:29:09.673Z,14.65
2022-12-06T10:31:51.069Z,13.27
2022-12-06T10:34:21.737Z,13.45
2022-12-06T10:36:54.090Z,14.20
2022-12-06T10:39:22.928Z,13.57
2022-12-06T10:41:54.675Z,13.18
2022-12-06T10:44:32.344Z,11.82
2022-12-06T10:47:06.153Z,13.32
2022-12-06T10:49:35.628Z,12.57
2022-12-06T10:52:04.902Z,12.45
2022-12-06T10:54:34.201Z,11.80
2022-12-06T10:57:02.083Z,12.23
2022-12-06T10:59:48.690Z,11.75
2022-12-06T11:02:23.688Z,12.02
2022-12-06T11:04:51.383Z,11.63
2022-12-06T11:07:30.827Z,12.82
2022-12-06T11:09:57.831Z,11.55
2022-12-06T11:12:31.445Z,12.00
2022-12-06T11:15:14.635Z,11.93
2022-12-06T11:17:43.320Z,11.13
2022-12-06T11:20:15.342Z,12.20
2022-12-06T11:22:41.547Z,12.65
2022-12-06T11:25:26.548Z,12.25
2022-12-06T11:27:54.308Z,12.13
2022-12-06T11:30:21.433Z,11.02
2022-12-06T11:32:51.142Z,11.15
2022-12-06T11:35:21.268Z,10.55
2022-12-06T11:37:49.770Z,9.93
2022-12-06T11:40:18.971Z,10.20
2022-12-06T11:42:45.217Z,10.52
2022-12-06T11:45:18.223Z,10.63
2022-12-06T11:47:44.974Z,10.35
2022-12-06T11:50:17.176Z,9.73
2022-12-06T11:52:45.330Z,9.25
2022-12-06T11:55:19.376Z,9.75
2022-12-06T11:57:53.274Z,9.07
2022-12-06T12:00:24.382Z,8.77
2022-12-06T12:02:51.583Z,9.60
2022-12-06T12:05:19.945Z,9.40
2022-12-06T12:07:51.812Z,9.07
2022-12-06T12:10:26.305Z,9.35
2022-12-06T12:13:11.734Z,9.57
2022-12-06T12:15:38.686Z,11.98
2022-12-06T12:18:05.443Z,9.15
2022-12-06T12:20:35.250Z,9.65
2022-12-06T12:23:05.868Z,10.85
2022-12-06T12:25:33.615Z,10.87
2022-12-06T12:28:03.973Z,12.30
2022-12-06T12:30:31.347Z,9.20
2022-12-06T12:33:08.999Z,8.43
2022-12-06T12:35:35.163Z,9.40
2022-12-06T12:38:10.222Z,9.32
2022-12-06T12:40:41.406Z,8.88
2022-12-06T12:43:10.636Z,9.18
2022-12-06T12:45:39.598Z,8.85
2022-12-06T12:48:23.470Z,8.27
2022-12-06T12:50:56.961Z,7.90
2022-12-06T12:53:39.876Z,8.88
2022-12-06T12:56:09.557Z,8.02
2022-12-06T12:58:36.460Z,8.23
2022-12-06T13:01:05.743Z,8.20
2022-12-06T13:03:50.573Z,7.00
2022-12-06T13:06:40.492Z,7.15
2022-12-06T13:09:07.630Z,7.20
2022-12-06T13:11:39.038Z,7.05
2022-12-06T13:14:05.389Z,6.25
2022-12-06T13:16:33.797Z,7.13
2022-12-06T13:19:00.039Z,6.82
2022-12-06T13:21:35.015Z,6.55
2022-12-06T13:24:10.051Z,7.38
2022-12-06T13:26:51.236Z,7.38
2022-12-06T13:29:20.510Z,9.18
2022-12-06T13:31:48.382Z,7.57
2022-12-06T13:34:33.365Z,6.60
2022-12-06T13:37:02.738Z,8.55
2022-12-06T13:39:31.737Z,7.47
2022-12-06T13:42:17.635Z,7.05
2022-12-06T13:44:44.040Z,7.30
2022-12-06T13:47:28.787Z,7.22
2022-12-06T13:49:58.778Z,7.20
2022-12-06T13:52:59.796Z,8.45
2022-12-06T13:55:26.138Z,7.23
2022-12-06T13:57:55.510Z,7.28
2022-12-06T14:00:27.841Z,6.53
2022-12-06T14:02:55.587Z,6.28
2022-12-06T14:05:40.434Z,6.57
2022-12-06T14:08:09.697Z,6.63
2022-12-06T14:10:35.926Z,6.45
2022-12-06T14:13:03.359Z,7.07
2022-12-06T14:15:30.698Z,7.88
2022-12-06T14:18:05.602Z,7.15
2022-12-06T14:20:35.832Z,6.95
2022-12-06T14:23:02.158Z,6.43
2022-12-06T14:25:29.560Z,7.18
2022-12-06T14:28:03.744Z,6.28
2022-12-06T14:30:30.043Z,5.38
2022-12-06T14:32:57.311Z,6.20
2022-12-06T14:35:25.600Z,6.68
2022-12-06T14:37:58.945Z,5.95
2022-12-06T14:40:46.018Z,7.05
2022-12-06T14:43:15.650Z,6.47
2022-12-06T14:45:42.538Z,6.47
2022-12-06T14:48:10.687Z,7.30
2022-12-06T14:50:41.634Z,6.82
2022-12-06T14:53:11.550Z,6.25
2022-12-06T14:55:57.238Z,5.90
2022-12-06T14:58:27.781Z,6.70
2022-12-06T15:01:01.606Z,6.03
2022-12-06T15:03:33.880Z,5.53
2022-12-06T15:06:14.556Z,6.75
2022-12-06T15:08:54.882Z,6.88
2022-12-06T15:11:41.793Z,6.40
2022-12-06T15:14:17.375Z,5.90
2022-12-06T15:16:44.758Z,7.30
2022-12-06T15:19:14.954Z,7.15
2022-12-06T15:21:41.349Z,7.63
2022-12-06T15:24:15.130Z,8.93
2022-12-06T15:26:41.343Z,8.27
2022-12-06T15:29:07.530Z,8.68
2022-12-06T15:31:34.796Z,7.65
2022-12-06T15:34:01.142Z,6.93
2022-12-06T15:36:30.949Z,7.15
2022-12-06T15:38:57.539Z,7.70
2022-12-06T15:41:25.908Z,8.00
2022-12-06T15:43:53.399Z,7.45
2022-12-06T15:46:24.367Z,7.28
2022-12-06T15:48:51.239Z,6.95
2022-12-06T15:51:20.936Z,7.60
2022-12-06T15:53:47.903Z,7.40
2022-12-06T15:56:15.581Z,7.45
2022-12-06T15:58:45.624Z,7.80
2022-12-06T16:01:14.928Z,8.13
2022-12-06T16:03:42.264Z,7.70
2022-12-06T16:06:13.038Z,7.70
2022-12-06T16:08:39.241Z,7.78
2022-12-06T16:11:13.016Z,8.38
2022-12-06T16:13:39.358Z,8.68
2022-12-06T16:16:05.785Z,7.85
2022-12-06T16:18:32.056Z,8.65
2022-12-06T16:20:58.539Z,8.25
2022-12-06T16:26:31.311Z,8.57
2022-12-06T16:28:58.047Z,9.38
2022-12-06T16:31:24.715Z,9.65
2022-12-06T16:33:51.115Z,8.98
2022-12-06T16:36:18.767Z,10.50
2022-12-06T16:38:45.051Z,10.20
2022-12-06T16:41:21.977Z,10.60
2022-12-06T16:43:48.554Z,10.30
2022-12-06T16:46:19.418Z,9.60
2022-12-06T16:48:45.690Z,10.55
2022-12-06T16:51:11.869Z,10.13
2022-12-06T16:53:38.059Z,10.73
2022-12-06T16:56:04.433Z,9.82
2022-12-06T16:58:30.669Z,11.23
2022-12-06T17:00:59.122Z,10.75
2022-12-06T17:03:25.430Z,9.80
2022-12-06T17:05:51.665Z,10.45
2022-12-06T17:08:22.079Z,10.88
2022-12-06T17:10:48.637Z,10.15
2022-12-06T17:13:14.847Z,10.90
2022-12-06T17:15:41.041Z,10.55
2022-12-06T17:18:07.292Z,11.30
2022-12-06T17:20:33.497Z,10.63
2022-12-06T17:23:00.419Z,11.02
2022-12-06T17:25:26.646Z,11.75
2022-12-06T17:27:53.114Z,11.63
2022-12-06T17:30:19.895Z,12.30
2022-12-06T17:32:47.151Z,12.02
2022-12-06T17:35:14.094Z,12.38
2022-12-06T17:37:40.287Z,13.00
2022-12-06T17:40:06.943Z,12.75
2022-12-06T17:42:52.061Z,12.32
2022-12-06T17:45:23.290Z,12.02
2022-12-06T17:47:50.999Z,11.85
2022-12-06T17:50:17.267Z,11.68
2022-12-06T17:52:43.477Z,11.68
2022-12-06T17:55:12.386Z,11.90
2022-12-06T17:57:38.624Z,11.98
2022-12-06T18:00:05.450Z,11.07
2022-12-06T18:02:31.798Z,11.98
2022-12-06T18:04:58.307Z,12.23
2022-12-06T18:07:24.541Z,11.65
2022-12-06T18:09:50.779Z,12.00
2022-12-06T18:12:17.105Z,12.60
2022-12-06T18:14:43.702Z,11.90
2022-12-06T18:17:09.983Z,11.63
2022-12-06T18:19:36.404Z,11.55
2022-12-06T18:22:03.205Z,11.93
2022-12-06T18:24:35.633Z,11.80
2022-12-06T18:27:03.066Z,12.43
2022-12-06T18:29:29.305Z,12.40
2022-12-06T18:31:55.631Z,11.68
2022-12-06T18:34:22.570Z,12.15
2022-12-06T18:36:48.821Z,11.13
2022-12-06T18:39:16.503Z,10.32
2022-12-06T18:41:43.748Z,11.38
2022-12-06T18:44:10.677Z,12.05
2022-12-06T18:46:38.592Z,11.40
2022-12-06T18:49:05.136Z,11.40
2022-12-06T18:51:33.015Z,11.60
2022-12-06T18:54:00.704Z,12.38
2022-12-06T18:56:27.291Z,12.10
2022-12-06T18:58:53.751Z,11.55
2022-12-06T19:01:24.467Z,12.23
2022-12-06T19:03:51.164Z,12.32
2022-12-06T19:06:18.935Z,11.50
2022-12-06T19:08:45.766Z,11.38
2022-12-06T19:11:19.540Z,12.48
2022-12-06T19:13:55.995Z,11.88
2022-12-06T19:16:25.893Z,11.75
2022-12-06T19:18:53.073Z,12.50
2022-12-06T19:21:19.337Z,12.18
2022-12-06T19:23:45.591Z,11.90
2022-12-06T19:26:12.080Z,11.95
2022-12-06T19:28:39.300Z,12.18
2022-12-06T19:31:07.612Z,12.50
2022-12-06T19:33:35.113Z,11.68
2022-12-06T19:36:02.634Z,11.45
2022-12-06T19:38:29.270Z,12.43
2022-12-06T19:40:55.777Z,11.80
2022-12-06T19:43:45.175Z,11.75
2022-12-06T19:46:13.462Z,12.02
2022-12-06T19:48:39.802Z,12.35
2022-12-06T19:51:06.337Z,11.48
2022-12-06T19:53:33.605Z,10.75
2022-12-06T19:55:59.862Z,12.05
2022-12-06T19:58:26.095Z,11.93
2022-12-06T20:00:52.405Z,12.65
2022-12-06T20:03:18.597Z,12.73
2022-12-06T20:05:44.857Z,12.05
2022-12-06T20:08:11.160Z,12.68
2022-12-06T20:10:38.106Z,12.50
2022-12-06T20:13:06.059Z,11.73
2022-12-06T20:15:32.943Z,12.05
2022-12-06T20:17:59.234Z,13.20
2022-12-06T20:20:25.631Z,12.07
2022-12-06T20:22:51.896Z,14.05
2022-12-06T20:25:18.217Z,13.95
2022-12-06T20:27:54.248Z,13.18
2022-12-06T20:30:22.285Z,13.57
2022-12-06T20:32:48.788Z,12.45
2022-12-06T20:35:15.450Z,13.85
2022-12-06T20:37:41.795Z,14.63
2022-12-06T20:40:08.529Z,13.27
2022-12-06T20:42:34.942Z,16.17
2022-12-06T20:45:01.224Z,13.70
2022-12-06T20:47:27.864Z,13.85
2022-12-06T20:49:54.225Z,14.23
2022-12-06T20:52:20.432Z,12.27
2022-12-06T20:54:46.869Z,13.40
2022-12-06T20:57:13.086Z,14.80
2022-12-06T20:59:39.337Z,14.55
2022-12-06T21:02:05.877Z,14.38
2022-12-06T21:04:32.198Z,14.50
2022-12-06T21:06:58.485Z,14.05
2022-12-06T21:09:24.750Z,14.98
2022-12-06T21:11:51.030Z,14.20
2022-12-06T21:14:17.733Z,14.85
2022-12-06T21:16:44.005Z,14.85
2022-12-06T21:19:12.524Z,14.85
2022-12-06T21:21:40.029Z,15.48
2022-12-06T21:24:09.510Z,15.25
2022-12-06T21:26:35.863Z,15.10
2022-12-06T21:29:02.383Z,16.77
2022-12-06T21:31:29.567Z,16.77
2022-12-06T21:33:56.139Z,16.00
2022-12-06T21:36:23.083Z,15.63
2022-12-06T21:38:49.336Z,15.68
2022-12-06T21:41:15.547Z,15.50
2022-12-06T21:43:41.850Z,16.10
2022-12-06T21:46:10.152Z,15.80
2022-12-06T21:48:36.495Z,17.52
2022-12-06T21:51:04.446Z,17.05
2022-12-06T21:53:30.861Z,18.00
2022-12-06T21:55:57.233Z,16.50
2022-12-06T21:58:23.811Z,17.23
2022-12-06T22:00:50.453Z,16.83
2022-12-06T22:03:22.743Z,17.08
2022-12-06T22:05:49.630Z,17.13
2022-12-06T22:08:15.989Z,17.77
2022-12-06T22:10:42.444Z,16.40
2022-12-06T22:13:08.828Z,17.10
2022-12-06T22:15:35.255Z,16.92
2022-12-06T22:18:01.614Z,19.52
2022-12-06T22:20:27.859Z,17.95
2022-12-06T22:22:54.203Z,17.48
2022-12-06T22:25:20.484Z,18.65
2022-12-06T22:27:46.708Z,18.52
2022-12-06T22:30:13.290Z,17.95
2022-12-06T22:32:39.541Z,17.67
2022-12-06T22:35:06.097Z,18.05
2022-12-06T22:37:32.362Z,18.45
2022-12-06T22:39:58.761Z,20.58
2022-12-06T22:42:25.229Z,18.73
2022-12-06T22:44:51.520Z,19.92
2022-12-06T22:47:18.014Z,19.88
2022-12-06T22:49:44.303Z,19.90
2022-12-06T22:52:10.555Z,20.25
2022-12-06T22:54:36.824Z,19.42
2022-12-06T22:57:03.237Z,20.35
2022-12-06T22:59:29.434Z,20.35
2022-12-06T23:01:55.713Z,18.90
2022-12-06T23:04:22.307Z,20.90
2022-12-06T23:06:48.655Z,22.25
2022-12-06T23:09:15.755Z,21.73
2022-12-06T23:11:42.304Z,21.80
2022-12-06T23:14:08.787Z,22.02
2022-12-06T23:16:35.675Z,22.65
2022-12-06T23:19:02.503Z,23.60
2022-12-06T23:21:30.022Z,23.15
2022-12-06T23:23:57.525Z,23.20
2022-12-06T23:26:25.420Z,24.30
2022-12-06T23:28:52.007Z,24.50
2022-12-06T23:31:19.784Z,24.63
2022-12-06T23:33:46.115Z,24.25
2022-12-06T23:36:13.638Z,25.20
2022-12-06T23:38:40.294Z,24.88
2022-12-06T23:41:13.559Z,24.25
2022-12-06T23:43:40.036Z,25.25
2022-12-06T23:46:07.829Z,26.23
2022-12-06T23:48:34.781Z,24.38
2022-12-06T23:51:07.015Z,25.60
2022-12-06T23:53:33.692Z,25.27
2022-12-06T23:56:01.024Z,24.00
2022-12-06T23:58:28.506Z,23.80
